createdAt,value
2018-02-20T00:00:38.159Z,36.70
2018-02-20T00:01:44.573Z,33.70
2018-02-20T00:02:50.762Z,30.35
2018-02-20T00:03:56.706Z,33.33
2018-02-20T00:05:02.856Z,36.90
2018-02-20T00:06:09.111Z,33.45
2018-02-20T00:07:15.288Z,32.97
2018-02-20T00:08:21.477Z,32.80
2018-02-20T00:09:27.715Z,32.00
2018-02-20T00:10:33.962Z,35.63
2018-02-20T00:11:40.206Z,30.75
2018-02-20T00:12:46.441Z,29.77
2018-02-20T00:13:52.373Z,29.40
2018-02-20T00:14:58.564Z,33.00
2018-02-20T00:16:04.956Z,31.17
2018-02-20T00:17:11.312Z,32.88
2018-02-20T00:18:17.464Z,31.95
2018-02-20T00:19:23.609Z,34.42
2018-02-20T00:20:29.807Z,33.55
2018-02-20T00:21:36.018Z,32.15
2018-02-20T00:22:42.169Z,29.92
2018-02-20T00:23:48.333Z,30.35
2018-02-20T00:24:54.535Z,32.97
2018-02-20T00:26:00.781Z,31.27
2018-02-20T00:27:07.082Z,28.42
2018-02-20T00:28:13.010Z,32.17
2018-02-20T00:29:19.581Z,31.37
2018-02-20T00:30:25.780Z,36.20
2018-02-20T00:31:32.051Z,30.00
2018-02-20T00:32:38.267Z,29.33
2018-02-20T00:33:44.098Z,33.03
2018-02-20T00:34:50.376Z,33.15
2018-02-20T00:35:56.571Z,34.50
2018-02-20T00:37:02.704Z,30.50
2018-02-20T00:38:08.895Z,34.10
2018-02-20T00:39:15.053Z,33.70
2018-02-20T00:40:20.924Z,29.80
2018-02-20T00:41:27.474Z,35.67
2018-02-20T00:42:33.709Z,37.72
2018-02-20T00:43:39.862Z,36.65
2018-02-20T00:44:46.123Z,36.35
2018-02-20T00:45:52.320Z,30.30
2018-02-20T00:46:58.233Z,39.85
2018-02-20T00:48:04.443Z,33.85
2018-02-20T00:49:10.628Z,33.90
2018-02-20T00:50:16.780Z,31.92
2018-02-20T00:51:22.955Z,31.98
2018-02-20T00:52:34.306Z,36.88
2018-02-20T00:53:40.539Z,31.85
2018-02-20T00:54:46.697Z,35.05
2018-02-20T00:55:52.873Z,36.08
2018-02-20T00:56:58.694Z,34.13
2018-02-20T00:58:04.988Z,35.70
2018-02-20T00:59:12.851Z,34.85
2018-02-20T01:00:19.639Z,33.25
2018-02-20T01:01:27.177Z,35.47
2018-02-20T01:02:36.234Z,35.85
2018-02-20T01:03:42.434Z,33.65
2018-02-20T01:04:48.621Z,36.00
2018-02-20T01:05:54.814Z,34.55
2018-02-20T01:07:01.055Z,36.88
2018-02-20T01:08:07.305Z,38.45
2018-02-20T01:09:13.467Z,35.28
2018-02-20T01:10:19.378Z,32.72
2018-02-20T01:11:25.304Z,34.75
2018-02-20T01:12:31.470Z,32.58
2018-02-20T01:13:37.394Z,33.42
2018-02-20T01:14:43.650Z,32.38
2018-02-20T01:15:49.927Z,34.15
2018-02-20T01:17:01.265Z,33.78
2018-02-20T01:18:07.492Z,36.85
2018-02-20T01:19:13.778Z,35.42
2018-02-20T01:20:19.950Z,31.37
2018-02-20T01:21:30.068Z,34.90
2018-02-20T01:22:36.359Z,31.73
2018-02-20T01:23:42.520Z,31.73
2018-02-20T01:24:48.748Z,31.60
2018-02-20T01:25:54.901Z,32.42
2018-02-20T01:27:01.102Z,28.58
2018-02-20T01:28:07.076Z,37.28
2018-02-20T01:29:13.302Z,31.62
2018-02-20T01:30:20.473Z,33.53
2018-02-20T01:31:26.908Z,32.28
2018-02-20T01:32:33.078Z,33.65
2018-02-20T01:33:39.263Z,35.50
2018-02-20T01:34:45.432Z,33.55
2018-02-20T01:35:51.660Z,35.80
2018-02-20T01:36:57.869Z,35.25
2018-02-20T01:38:04.053Z,35.30
2018-02-20T01:39:10.234Z,32.45
2018-02-20T01:40:16.402Z,33.75
2018-02-20T01:41:22.604Z,32.13
2018-02-20T01:42:28.754Z,35.20
2018-02-20T01:43:34.917Z,33.58
2018-02-20T01:44:41.036Z,36.15
2018-02-20T01:45:47.222Z,32.03
2018-02-20T01:46:53.069Z,36.50
2018-02-20T01:47:59.528Z,35.88
2018-02-20T01:49:05.693Z,34.25
2018-02-20T01:50:11.833Z,33.72
2018-02-20T01:51:17.981Z,35.78
2018-02-20T01:52:24.105Z,38.38
2018-02-20T01:53:30.021Z,39.33
2018-02-20T01:54:36.246Z,33.20
2018-02-20T01:55:42.432Z,32.88
2018-02-20T01:56:48.572Z,35.50
2018-02-20T01:57:54.722Z,34.83
2018-02-20T01:59:00.947Z,36.20
2018-02-20T02:00:07.076Z,41.40
2018-02-20T02:01:12.983Z,37.22
2018-02-20T02:02:19.115Z,39.38
2018-02-20T02:03:25.012Z,34.00
2018-02-20T02:04:31.196Z,34.70
2018-02-20T02:05:37.426Z,34.53
2018-02-20T02:06:43.328Z,31.65
2018-02-20T02:07:49.521Z,37.80
2018-02-20T02:08:55.472Z,36.15
2018-02-20T02:10:01.655Z,38.08
2018-02-20T02:11:07.848Z,34.70
2018-02-20T02:12:13.986Z,32.40
2018-02-20T02:13:20.491Z,36.03
2018-02-20T02:14:26.657Z,30.85
2018-02-20T02:15:36.858Z,33.55
2018-02-20T02:16:43.048Z,30.15
2018-02-20T02:17:49.275Z,36.13
2018-02-20T02:18:55.443Z,32.42
2018-02-20T02:20:01.669Z,34.25
2018-02-20T02:21:07.858Z,35.17
2018-02-20T02:22:14.014Z,32.67
2018-02-20T02:23:19.897Z,35.17
2018-02-20T02:24:26.057Z,32.35
2018-02-20T02:25:32.954Z,36.80
2018-02-20T02:26:39.174Z,41.13
2018-02-20T02:27:45.342Z,38.60
2018-02-20T02:28:51.550Z,35.78
2018-02-20T02:29:57.743Z,38.20
2018-02-20T02:31:03.657Z,29.30
2018-02-20T02:32:09.918Z,35.67
2018-02-20T02:33:16.095Z,33.90
2018-02-20T02:34:22.246Z,33.45
2018-02-20T02:35:28.431Z,37.00
2018-02-20T02:36:34.731Z,36.65
2018-02-20T02:37:40.931Z,38.55
2018-02-20T02:38:47.173Z,40.47
2018-02-20T02:39:53.372Z,34.75
2018-02-20T02:40:59.554Z,37.63
2018-02-20T02:42:08.618Z,29.85
2018-02-20T02:43:14.841Z,34.78
2018-02-20T02:44:21.095Z,32.05
2018-02-20T02:45:27.243Z,36.47
2018-02-20T02:46:33.424Z,32.28
2018-02-20T02:47:39.366Z,35.00
2018-02-20T02:48:45.631Z,36.13
2018-02-20T02:49:51.875Z,35.80
2018-02-20T02:50:58.112Z,35.03
2018-02-20T02:52:04.312Z,34.70
2018-02-20T02:53:10.189Z,34.17
2018-02-20T02:54:16.347Z,31.10
2018-02-20T02:55:22.525Z,31.08
2018-02-20T02:56:28.755Z,31.45
2018-02-20T02:57:34.942Z,33.85
2018-02-20T02:58:41.143Z,36.15
2018-02-20T02:59:50.910Z,29.42
2018-02-20T03:00:57.088Z,32.10
2018-02-20T03:02:03.271Z,33.40
2018-02-20T03:03:09.472Z,30.30
2018-02-20T03:04:15.658Z,32.95
2018-02-20T03:05:21.794Z,34.83
2018-02-20T03:06:28.877Z,32.42
2018-02-20T03:07:34.828Z,32.58
2018-02-20T03:08:40.760Z,30.58
2018-02-20T03:09:46.966Z,31.50
2018-02-20T03:10:53.134Z,34.85
2018-02-20T03:11:59.294Z,31.37
2018-02-20T03:13:05.519Z,33.20
2018-02-20T03:14:11.718Z,35.83
2018-02-20T03:15:18.769Z,31.02
2018-02-20T03:16:24.972Z,30.83
2018-02-20T03:17:30.931Z,34.95
2018-02-20T03:18:37.165Z,35.95
2018-02-20T03:19:43.070Z,31.95
2018-02-20T03:20:49.280Z,32.50
2018-02-20T03:21:55.478Z,36.00
2018-02-20T03:23:01.678Z,32.67
2018-02-20T03:24:07.841Z,33.55
2018-02-20T03:25:14.006Z,33.35
2018-02-20T03:26:20.194Z,34.95
2018-02-20T03:27:26.408Z,37.67
2018-02-20T03:28:32.588Z,35.30
2018-02-20T03:29:38.802Z,32.42
2018-02-20T03:30:44.945Z,33.33
2018-02-20T03:31:51.099Z,31.70
2018-02-20T03:32:57.304Z,29.33
2018-02-20T03:34:03.428Z,32.53
2018-02-20T03:35:09.646Z,36.05
2018-02-20T03:36:15.872Z,34.15
2018-02-20T03:37:22.053Z,32.65
2018-02-20T03:38:28.274Z,33.78
2018-02-20T03:39:34.875Z,35.25
2018-02-20T03:40:41.150Z,30.42
2018-02-20T03:41:47.311Z,29.92
2018-02-20T03:42:53.487Z,27.25
2018-02-20T03:43:59.677Z,30.17
2018-02-20T03:45:10.994Z,33.05
2018-02-20T03:46:17.229Z,34.00
2018-02-20T03:47:23.414Z,31.15
2018-02-20T03:48:29.964Z,27.60
2018-02-20T03:49:36.658Z,30.98
2018-02-20T03:50:42.946Z,27.85
2018-02-20T03:51:49.161Z,32.10
2018-02-20T03:52:59.341Z,33.42
2018-02-20T03:54:05.531Z,35.28
2018-02-20T03:55:11.436Z,31.95
2018-02-20T03:56:17.705Z,34.05
2018-02-20T03:57:23.908Z,31.87
2018-02-20T03:58:30.117Z,34.65
2018-02-20T03:59:36.308Z,30.73
2018-02-20T04:00:42.569Z,34.50
2018-02-20T04:01:48.787Z,33.40
2018-02-20T04:02:55.033Z,38.08
2018-02-20T04:04:01.239Z,32.20
2018-02-20T04:05:07.437Z,30.83
2018-02-20T04:06:13.637Z,34.75
2018-02-20T04:07:19.807Z,34.17
2018-02-20T04:08:26.044Z,33.38
2018-02-20T04:09:32.763Z,36.75
2018-02-20T04:10:40.071Z,35.03
2018-02-20T04:11:47.440Z,32.83
2018-02-20T04:12:54.370Z,38.30
2018-02-20T04:14:01.897Z,33.53
2018-02-20T04:15:08.987Z,33.13
2018-02-20T04:16:19.411Z,37.35
2018-02-20T04:17:27.460Z,34.33
2018-02-20T04:18:34.823Z,35.45
2018-02-20T04:19:42.288Z,33.92
2018-02-20T04:20:48.972Z,34.83
2018-02-20T04:21:55.363Z,33.58
2018-02-20T04:23:02.447Z,33.38
2018-02-20T04:24:12.324Z,32.30
2018-02-20T04:25:19.260Z,33.42
2018-02-20T04:26:26.610Z,27.67
2018-02-20T04:27:34.358Z,36.45
2018-02-20T04:28:42.091Z,31.00
2018-02-20T04:29:49.025Z,32.90
2018-02-20T04:30:56.153Z,30.73
2018-02-20T04:32:03.388Z,30.73
2018-02-20T04:33:11.713Z,33.15
2018-02-20T04:34:18.568Z,27.65
2018-02-20T04:35:25.170Z,31.60
2018-02-20T04:36:32.282Z,28.87
2018-02-20T04:37:39.392Z,25.62
2018-02-20T04:38:47.184Z,31.00
2018-02-20T04:39:54.444Z,28.67
2018-02-20T04:41:02.463Z,32.75
2018-02-20T04:42:09.525Z,33.53
2018-02-20T04:43:16.225Z,30.37
2018-02-20T04:44:22.533Z,31.48
2018-02-20T04:45:28.777Z,29.85
2018-02-20T04:46:35.974Z,31.10
2018-02-20T04:47:42.445Z,28.58
2018-02-20T04:48:48.655Z,31.95
2018-02-20T04:49:54.841Z,29.55
2018-02-20T04:51:01.656Z,31.30
2018-02-20T04:52:09.001Z,33.28
2018-02-20T04:53:15.287Z,30.20
2018-02-20T04:54:22.977Z,31.27
2018-02-20T04:55:30.680Z,28.92
2018-02-20T04:56:37.304Z,34.53
2018-02-20T04:57:43.463Z,27.10
2018-02-20T04:58:49.676Z,31.52
2018-02-20T04:59:55.835Z,33.88
2018-02-20T05:01:02.025Z,34.58
2018-02-20T05:02:08.224Z,32.17
2018-02-20T05:03:14.439Z,35.05
2018-02-20T05:04:20.616Z,35.20
2018-02-20T05:05:26.776Z,42.65
2018-02-20T05:06:33.033Z,34.08
2018-02-20T05:07:39.270Z,32.53
2018-02-20T05:08:45.652Z,37.15
2018-02-20T05:09:54.781Z,35.00
2018-02-20T05:11:00.975Z,31.70
2018-02-20T05:12:07.201Z,33.25
2018-02-20T05:13:13.393Z,41.97
2018-02-20T05:14:19.740Z,49.10
2018-02-20T05:15:25.945Z,47.85
2018-02-20T05:16:32.113Z,51.20
2018-02-20T05:17:38.259Z,46.20
2018-02-20T05:18:44.458Z,42.05
2018-02-20T05:19:50.386Z,42.03
2018-02-20T05:20:56.810Z,40.47
2018-02-20T05:22:03.151Z,41.60
2018-02-20T05:23:09.683Z,40.33
2018-02-20T05:24:15.895Z,38.95
2018-02-20T05:25:22.077Z,39.35
2018-02-20T05:26:28.281Z,35.55
2018-02-20T05:27:34.761Z,35.33
2018-02-20T05:28:41.135Z,34.40
2018-02-20T05:29:47.957Z,38.92
2018-02-20T05:30:53.852Z,33.55
2018-02-20T05:31:59.985Z,36.40
2018-02-20T05:33:06.171Z,38.20
2018-02-20T05:34:12.338Z,35.40
2018-02-20T05:35:18.610Z,35.97
2018-02-20T05:36:24.924Z,37.33
2018-02-20T05:37:31.156Z,32.17
2018-02-20T05:38:37.357Z,32.97
2018-02-20T05:39:43.592Z,35.72
2018-02-20T05:40:49.805Z,32.97
2018-02-20T05:41:55.996Z,54.95
2018-02-20T05:43:02.309Z,43.67
2018-02-20T05:44:08.481Z,42.50
2018-02-20T05:45:14.685Z,39.10
2018-02-20T05:46:20.852Z,41.22
2018-02-20T05:47:27.133Z,42.78
2018-02-20T05:48:33.334Z,44.63
2018-02-20T05:49:39.629Z,43.28
2018-02-20T05:50:45.861Z,43.72
2018-02-20T05:51:52.006Z,35.42
2018-02-20T05:52:58.196Z,38.58
2018-02-20T05:54:04.328Z,43.53
2018-02-20T05:55:10.512Z,44.55
2018-02-20T05:56:16.675Z,47.08
2018-02-20T05:57:22.819Z,44.65
2018-02-20T05:58:28.999Z,51.35
2018-02-20T05:59:35.197Z,50.97
2018-02-20T06:00:41.377Z,59.70
2018-02-20T06:01:47.380Z,59.10
2018-02-20T06:02:53.587Z,59.35
2018-02-20T06:03:59.745Z,57.25
2018-02-20T06:05:05.614Z,49.88
2018-02-20T06:06:11.817Z,61.42
2018-02-20T06:07:18.006Z,52.08
2018-02-20T06:08:24.201Z,60.90
2018-02-20T06:09:30.400Z,63.05
2018-02-20T06:10:36.583Z,67.53
2018-02-20T06:11:42.889Z,65.35
2018-02-20T06:12:49.099Z,68.12
2018-02-20T06:13:55.272Z,59.58
2018-02-20T06:15:01.472Z,58.78
2018-02-20T06:16:07.622Z,49.30
2018-02-20T06:17:13.764Z,54.75
2018-02-20T06:18:19.881Z,58.80
2018-02-20T06:19:25.791Z,61.63
2018-02-20T06:20:31.972Z,56.03
2018-02-20T06:21:37.940Z,52.85
2018-02-20T06:22:44.203Z,45.30
2018-02-20T06:23:50.371Z,43.60
2018-02-20T06:24:56.516Z,45.12
2018-02-20T06:26:03.312Z,44.22
2018-02-20T06:27:10.109Z,41.20
2018-02-20T06:28:16.285Z,38.88
2018-02-20T06:29:22.452Z,44.80
2018-02-20T06:30:28.896Z,50.28
2018-02-20T06:31:35.310Z,43.38
2018-02-20T06:32:43.480Z,46.37
2018-02-20T06:33:49.620Z,49.17
2018-02-20T06:34:55.795Z,52.00
2018-02-20T06:36:01.924Z,53.67
2018-02-20T06:37:08.326Z,56.22
2018-02-20T06:38:14.442Z,51.17
2018-02-20T06:39:24.704Z,46.92
2018-02-20T06:40:30.908Z,42.15
2018-02-20T06:41:37.110Z,42.60
2018-02-20T06:42:43.256Z,46.13
2018-02-20T06:43:49.408Z,40.53
2018-02-20T06:44:55.615Z,46.95
2018-02-20T06:46:01.799Z,48.33
2018-02-20T06:47:07.982Z,40.83
2018-02-20T06:48:13.800Z,39.50
2018-02-20T06:49:19.999Z,41.00
2018-02-20T06:50:26.168Z,38.03
2018-02-20T06:51:32.354Z,41.58
2018-02-20T06:52:38.544Z,39.55
2018-02-20T06:53:44.686Z,36.63
2018-02-20T06:54:50.832Z,35.35
2018-02-20T06:55:57.044Z,37.20
2018-02-20T06:57:03.202Z,38.78
2018-02-20T06:58:09.366Z,34.15
2018-02-20T06:59:15.554Z,34.22
2018-02-20T07:00:21.755Z,37.40
2018-02-20T07:01:27.964Z,39.88
2018-02-20T07:02:34.249Z,37.67
2018-02-20T07:03:40.747Z,43.60
2018-02-20T07:04:46.924Z,40.80
2018-02-20T07:05:53.094Z,38.83
2018-02-20T07:06:59.225Z,40.03
2018-02-20T07:08:05.831Z,36.30
2018-02-20T07:09:12.101Z,35.70
2018-02-20T07:10:18.821Z,43.67
2018-02-20T07:11:24.979Z,39.05
2018-02-20T07:12:31.181Z,45.42
2018-02-20T07:13:37.369Z,37.95
2018-02-20T07:14:43.352Z,40.15
2018-02-20T07:15:49.775Z,38.90
2018-02-20T07:16:55.955Z,39.70
2018-02-20T07:18:02.124Z,36.30
2018-02-20T07:19:08.275Z,40.25
2018-02-20T07:20:14.531Z,47.53
2018-02-20T07:21:20.733Z,36.30
2018-02-20T07:22:26.892Z,39.45
2018-02-20T07:23:35.069Z,42.62
2018-02-20T07:24:41.260Z,40.08
2018-02-20T07:25:47.403Z,41.50
2018-02-20T07:26:53.572Z,39.53
2018-02-20T07:27:59.749Z,38.50
2018-02-20T07:29:05.913Z,39.42
2018-02-20T07:30:12.063Z,37.85
2018-02-20T07:31:23.340Z,42.65
2018-02-20T07:32:29.566Z,38.97
2018-02-20T07:33:35.733Z,39.70
2018-02-20T07:34:41.981Z,41.63
2018-02-20T07:35:48.132Z,44.10
2018-02-20T07:36:54.425Z,46.28
2018-02-20T07:38:00.577Z,38.85
2018-02-20T07:39:06.764Z,40.72
2018-02-20T07:40:13.354Z,38.53
2018-02-20T07:41:27.589Z,41.88
2018-02-20T07:42:33.757Z,40.47
2018-02-20T07:43:39.923Z,45.40
2018-02-20T07:44:50.033Z,40.85
2018-02-20T07:45:56.264Z,43.13
2018-02-20T07:47:02.654Z,45.42
2018-02-20T07:48:08.491Z,38.30
2018-02-20T07:49:14.714Z,45.83
2018-02-20T07:50:20.878Z,42.83
2018-02-20T07:51:27.054Z,42.40
2018-02-20T07:52:33.292Z,41.50
2018-02-20T07:53:39.347Z,39.40
2018-02-20T07:54:45.537Z,39.03
2018-02-20T07:55:51.944Z,44.15
2018-02-20T07:56:58.181Z,43.53
2018-02-20T07:58:04.372Z,45.60
2018-02-20T07:59:10.494Z,41.15
2018-02-20T08:00:16.671Z,45.67
2018-02-20T08:01:22.529Z,41.55
2018-02-20T08:02:28.745Z,41.33
2018-02-20T08:03:34.999Z,43.25
2018-02-20T08:04:41.309Z,49.00
2018-02-20T08:05:47.125Z,37.15
2018-02-20T08:06:53.253Z,44.78
2018-02-20T08:07:59.487Z,41.88
2018-02-20T08:09:05.006Z,44.60
2018-02-20T08:10:11.147Z,49.42
2018-02-20T08:11:17.352Z,46.78
2018-02-20T08:12:23.471Z,45.28
2018-02-20T08:13:29.649Z,42.17
2018-02-20T08:14:35.490Z,51.47
2018-02-20T08:15:41.670Z,43.67
2018-02-20T08:16:47.841Z,46.22
2018-02-20T08:17:54.023Z,43.85
2018-02-20T08:19:00.158Z,47.50
2018-02-20T08:20:10.246Z,45.50
2018-02-20T08:21:16.471Z,43.15
2018-02-20T08:22:22.629Z,46.90
2018-02-20T08:23:28.760Z,45.88
2018-02-20T08:24:34.919Z,47.75
2018-02-20T08:25:41.129Z,45.53
2018-02-20T08:26:47.327Z,52.72
2018-02-20T08:27:54.345Z,50.67
2018-02-20T08:29:00.524Z,39.90
2018-02-20T08:30:06.690Z,45.72
2018-02-20T08:31:12.813Z,50.85
2018-02-20T08:32:19.182Z,51.65
2018-02-20T08:33:25.349Z,49.58
2018-02-20T08:34:31.519Z,49.30
2018-02-20T08:35:37.651Z,45.88
2018-02-20T08:36:43.792Z,49.05
2018-02-20T08:37:50.000Z,46.45
2018-02-20T08:38:56.229Z,52.03
2018-02-20T08:40:02.412Z,47.50
2018-02-20T08:41:08.624Z,49.95
2018-02-20T08:42:14.786Z,51.25
2018-02-20T08:43:20.914Z,52.13
2018-02-20T08:44:27.072Z,49.38
2018-02-20T08:45:33.294Z,46.67
2018-02-20T08:46:39.486Z,50.05
2018-02-20T08:47:45.620Z,49.88
2018-02-20T08:48:51.901Z,47.78
2018-02-20T08:49:57.811Z,47.80
2018-02-20T08:51:03.721Z,51.40
2018-02-20T08:52:09.919Z,50.15
2018-02-20T08:53:16.127Z,51.42
2018-02-20T08:54:22.273Z,54.45
2018-02-20T08:55:28.453Z,48.33
2018-02-20T08:56:34.625Z,50.70
2018-02-20T08:57:40.895Z,50.95
2018-02-20T08:58:47.029Z,52.03
2018-02-20T08:59:53.207Z,48.00
2018-02-20T09:00:59.333Z,56.03
2018-02-20T09:02:05.189Z,48.65
2018-02-20T09:03:10.716Z,50.00
2018-02-20T09:04:16.953Z,48.80
2018-02-20T09:05:23.107Z,51.75
2018-02-20T09:06:29.277Z,51.03
2018-02-20T09:07:35.505Z,48.30
2018-02-20T09:08:41.707Z,48.33
2018-02-20T09:09:47.926Z,52.08
2018-02-20T09:10:54.878Z,48.28
2018-02-20T09:12:00.999Z,49.35
2018-02-20T09:13:07.151Z,52.72
2018-02-20T09:14:13.314Z,49.47
2018-02-20T09:15:19.535Z,48.53
2018-02-20T09:16:25.783Z,47.38
2018-02-20T09:17:34.913Z,55.60
2018-02-20T09:18:41.151Z,54.45
2018-02-20T09:19:47.557Z,50.05
2018-02-20T09:20:53.742Z,51.58
2018-02-20T09:21:59.982Z,50.30
2018-02-20T09:23:06.207Z,57.20
2018-02-20T09:24:12.331Z,53.13
2018-02-20T09:25:18.442Z,49.40
2018-02-20T09:26:24.600Z,50.35
2018-02-20T09:27:30.861Z,52.42
2018-02-20T09:28:37.085Z,51.35
2018-02-20T09:29:43.347Z,55.85
2018-02-20T09:30:49.504Z,47.53
2018-02-20T09:31:55.631Z,49.05
2018-02-20T09:33:01.758Z,49.67
2018-02-20T09:34:07.976Z,45.08
2018-02-20T09:35:14.156Z,50.40
2018-02-20T09:36:20.293Z,52.05
2018-02-20T09:37:26.480Z,58.55
2018-02-20T09:38:32.650Z,53.60
2018-02-20T09:39:38.843Z,52.60
2018-02-20T09:40:48.000Z,48.28
2018-02-20T09:41:54.122Z,52.78
2018-02-20T09:43:00.042Z,54.35
2018-02-20T09:44:06.292Z,53.17
2018-02-20T09:45:12.506Z,51.05
2018-02-20T09:46:18.474Z,49.70
2018-02-20T09:47:24.733Z,54.97
2018-02-20T09:48:30.904Z,51.95
2018-02-20T09:49:37.051Z,49.90
2018-02-20T09:50:43.254Z,56.40
2018-02-20T09:51:49.425Z,47.20
2018-02-20T09:52:55.595Z,54.38
2018-02-20T09:54:01.731Z,53.92
2018-02-20T09:55:07.905Z,52.00
2018-02-20T09:56:14.086Z,57.03
2018-02-20T09:57:20.250Z,55.03
2018-02-20T09:58:26.421Z,55.15
2018-02-20T09:59:32.618Z,54.03
2018-02-20T10:00:39.049Z,53.00
2018-02-20T10:01:45.228Z,55.83
2018-02-20T10:02:51.428Z,52.03
2018-02-20T10:03:57.599Z,49.88
2018-02-20T10:05:03.755Z,46.97
2018-02-20T10:06:09.769Z,53.65
2018-02-20T10:07:15.902Z,52.97
2018-02-20T10:08:22.058Z,50.65
2018-02-20T10:09:28.253Z,56.33
2018-02-20T10:10:34.454Z,50.12
2018-02-20T10:11:40.618Z,57.28
2018-02-20T10:12:46.512Z,56.53
2018-02-20T10:13:52.635Z,55.12
2018-02-20T10:14:58.867Z,55.65
2018-02-20T10:16:05.049Z,50.38
2018-02-20T10:17:11.188Z,57.28
2018-02-20T10:18:17.344Z,52.33
2018-02-20T10:19:23.497Z,48.13
2018-02-20T10:20:29.694Z,50.90
2018-02-20T10:21:35.927Z,49.83
2018-02-20T10:22:42.132Z,48.05
2018-02-20T10:23:48.288Z,49.97
2018-02-20T10:24:54.452Z,50.70
2018-02-20T10:26:00.609Z,49.72
2018-02-20T10:27:06.567Z,52.92
2018-02-20T10:28:12.829Z,53.35
2018-02-20T10:29:19.056Z,52.95
2018-02-20T10:30:25.206Z,54.38
2018-02-20T10:31:31.386Z,56.33
2018-02-20T10:32:37.562Z,50.08
2018-02-20T10:33:44.000Z,53.78
2018-02-20T10:34:50.192Z,52.62
2018-02-20T10:35:56.373Z,50.00
2018-02-20T10:37:02.540Z,45.90
2018-02-20T10:38:08.697Z,53.72
2018-02-20T10:39:15.137Z,48.78
2018-02-20T10:40:21.338Z,50.45
2018-02-20T10:41:27.509Z,52.35
2018-02-20T10:42:33.678Z,52.95
2018-02-20T10:43:39.876Z,52.55
2018-02-20T10:44:46.004Z,47.50
2018-02-20T10:45:52.180Z,49.00
2018-02-20T10:46:58.341Z,57.85
2018-02-20T10:48:03.809Z,49.92
2018-02-20T10:49:09.997Z,47.15
2018-02-20T10:50:16.576Z,51.10
2018-02-20T10:51:22.747Z,46.37
2018-02-20T10:52:28.948Z,49.05
2018-02-20T10:53:35.230Z,47.67
2018-02-20T10:54:41.443Z,44.22
2018-02-20T10:55:47.588Z,47.30
2018-02-20T10:56:53.777Z,46.42
2018-02-20T10:58:00.050Z,45.63
2018-02-20T10:59:06.212Z,46.85
2018-02-20T11:00:12.436Z,48.72
2018-02-20T11:01:20.435Z,47.83
2018-02-20T11:02:26.568Z,39.75
2018-02-20T11:03:32.977Z,45.47
2018-02-20T11:04:39.166Z,45.80
2018-02-20T11:05:45.544Z,42.78
2018-02-20T11:06:51.327Z,48.30
2018-02-20T11:07:58.413Z,50.45
2018-02-20T11:09:03.924Z,48.70
2018-02-20T11:10:10.569Z,47.53
2018-02-20T11:11:16.922Z,47.05
2018-02-20T11:12:22.732Z,54.10
2018-02-20T11:13:28.928Z,51.15
2018-02-20T11:14:35.076Z,51.80
2018-02-20T11:15:41.219Z,39.88
2018-02-20T11:16:47.435Z,44.00
2018-02-20T11:17:53.595Z,45.00
2018-02-20T11:18:59.713Z,45.30
2018-02-20T11:20:06.879Z,41.88
2018-02-20T11:21:13.067Z,45.08
2018-02-20T11:22:18.936Z,41.28
2018-02-20T11:23:24.841Z,52.17
2018-02-20T11:24:31.039Z,44.25
2018-02-20T11:25:37.194Z,46.40
2018-02-20T11:26:43.374Z,49.03
2018-02-20T11:27:49.505Z,50.80
2018-02-20T11:28:55.698Z,50.08
2018-02-20T11:30:01.838Z,53.03
2018-02-20T11:31:07.996Z,56.37
2018-02-20T11:32:14.158Z,51.95
2018-02-20T11:33:20.348Z,59.50
2018-02-20T11:34:26.464Z,52.58
2018-02-20T11:35:32.332Z,48.80
2018-02-20T11:36:38.510Z,51.08
2018-02-20T11:37:44.321Z,54.47
2018-02-20T11:38:50.481Z,47.70
2018-02-20T11:39:56.684Z,53.08
2018-02-20T11:41:02.849Z,56.78
2018-02-20T11:42:09.049Z,53.45
2018-02-20T11:43:15.192Z,45.95
2018-02-20T11:44:21.336Z,53.75
2018-02-20T11:45:27.528Z,51.30
2018-02-20T11:46:33.709Z,48.22
2018-02-20T11:47:39.908Z,48.92
2018-02-20T11:48:46.068Z,49.00
2018-02-20T11:49:52.194Z,42.75
2018-02-20T11:50:58.415Z,55.25
2018-02-20T11:52:04.609Z,46.10
2018-02-20T11:53:10.820Z,50.60
2018-02-20T11:54:17.042Z,48.85
2018-02-20T11:55:23.237Z,48.10
2018-02-20T11:56:29.388Z,50.40
2018-02-20T11:57:35.667Z,46.33
2018-02-20T11:58:41.861Z,45.97
2018-02-20T11:59:47.996Z,48.08
2018-02-20T12:00:54.175Z,50.42
2018-02-20T12:02:00.340Z,53.92
2018-02-20T12:03:06.480Z,50.92
2018-02-20T12:04:12.638Z,50.42
2018-02-20T12:05:18.837Z,52.08
2018-02-20T12:06:25.092Z,48.45
2018-02-20T12:07:36.431Z,47.58
2018-02-20T12:08:42.603Z,51.50
2018-02-20T12:09:48.826Z,54.92
2018-02-20T12:10:54.978Z,52.28
2018-02-20T12:12:01.183Z,51.20
2018-02-20T12:13:07.344Z,50.90
2018-02-20T12:14:13.500Z,49.90
2018-02-20T12:15:19.717Z,50.42
2018-02-20T12:16:25.901Z,50.83
2018-02-20T12:17:32.109Z,50.35
2018-02-20T12:18:38.262Z,54.70
2018-02-20T12:19:48.180Z,48.30
2018-02-20T12:20:54.295Z,52.83
2018-02-20T12:22:07.277Z,50.42
2018-02-20T12:23:13.407Z,56.97
2018-02-20T12:24:19.584Z,54.55
2018-02-20T12:25:25.729Z,47.15
2018-02-20T12:26:31.896Z,51.90
2018-02-20T12:27:38.033Z,46.35
2018-02-20T12:28:44.212Z,55.58
2018-02-20T12:29:50.408Z,52.62
2018-02-20T12:30:56.560Z,53.13
2018-02-20T12:32:02.756Z,57.50
2018-02-20T12:33:08.915Z,49.22
2018-02-20T12:34:15.081Z,54.97
2018-02-20T12:35:21.320Z,47.30
2018-02-20T12:36:27.602Z,53.40
2018-02-20T12:37:33.759Z,46.03
2018-02-20T12:38:39.930Z,52.80
2018-02-20T12:39:46.081Z,52.10
2018-02-20T12:40:52.245Z,50.78
2018-02-20T12:41:58.096Z,46.67
2018-02-20T12:43:04.283Z,51.58
2018-02-20T12:44:10.482Z,49.35
2018-02-20T12:45:16.889Z,49.90
2018-02-20T12:46:23.192Z,50.33
2018-02-20T12:47:29.417Z,47.97
2018-02-20T12:48:35.299Z,54.92
2018-02-20T12:49:41.456Z,45.53
2018-02-20T12:50:47.673Z,49.47
2018-02-20T12:51:53.860Z,50.85
2018-02-20T12:53:00.016Z,46.80
2018-02-20T12:54:07.064Z,57.15
2018-02-20T12:55:12.964Z,48.45
2018-02-20T12:56:18.867Z,47.08
2018-02-20T12:57:24.836Z,53.72
2018-02-20T12:58:31.045Z,51.75
2018-02-20T12:59:37.265Z,53.58
2018-02-20T13:00:43.480Z,55.22
2018-02-20T13:01:49.702Z,50.63
2018-02-20T13:02:55.887Z,51.10
2018-02-20T13:04:02.055Z,51.25
2018-02-20T13:05:08.302Z,48.28
2018-02-20T13:06:14.716Z,54.45
2018-02-20T13:07:20.892Z,46.50
2018-02-20T13:08:27.069Z,48.17
2018-02-20T13:09:33.065Z,49.15
2018-02-20T13:10:39.298Z,39.38
2018-02-20T13:11:45.555Z,44.88
2018-02-20T13:12:51.730Z,46.03
2018-02-20T13:13:57.938Z,49.83
2018-02-20T13:15:04.115Z,48.03
2018-02-20T13:16:15.738Z,53.30
2018-02-20T13:17:21.931Z,49.03
2018-02-20T13:18:28.211Z,49.75
2018-02-20T13:19:34.445Z,49.20
2018-02-20T13:20:40.606Z,50.90
2018-02-20T13:21:46.764Z,50.08
2018-02-20T13:22:52.880Z,54.33
2018-02-20T13:23:59.089Z,48.55
2018-02-20T13:25:04.562Z,49.53
2018-02-20T13:26:10.746Z,52.53
2018-02-20T13:27:17.016Z,48.40
2018-02-20T13:28:23.192Z,48.78
2018-02-20T13:29:29.303Z,51.10
2018-02-20T13:30:35.542Z,53.00
2018-02-20T13:31:41.954Z,49.80
2018-02-20T13:32:48.361Z,51.60
2018-02-20T13:33:54.570Z,49.47
2018-02-20T13:35:00.826Z,51.58
2018-02-20T13:36:07.053Z,50.35
2018-02-20T13:37:13.068Z,45.80
2018-02-20T13:38:19.279Z,50.10
2018-02-20T13:39:25.424Z,48.50
2018-02-20T13:40:31.664Z,47.47
2018-02-20T13:41:37.857Z,53.70
2018-02-20T13:42:44.039Z,46.55
2018-02-20T13:43:50.160Z,52.38
2018-02-20T13:44:56.340Z,47.13
2018-02-20T13:46:02.762Z,47.95
2018-02-20T13:47:09.003Z,54.58
2018-02-20T13:48:15.213Z,47.65
2018-02-20T13:49:21.368Z,47.50
2018-02-20T13:50:27.553Z,60.72
2018-02-20T13:51:37.465Z,47.80
2018-02-20T13:52:43.684Z,51.53
2018-02-20T13:53:50.341Z,50.45
2018-02-20T13:54:56.582Z,50.08
2018-02-20T13:56:02.769Z,53.20
2018-02-20T13:57:08.964Z,45.63
2018-02-20T13:58:15.168Z,49.88
2018-02-20T13:59:21.316Z,50.38
2018-02-20T14:00:27.466Z,56.10
2018-02-20T14:01:33.641Z,48.80
2018-02-20T14:02:39.825Z,51.97
2018-02-20T14:03:51.025Z,46.47
2018-02-20T14:04:57.223Z,49.85
2018-02-20T14:06:03.375Z,51.72
2018-02-20T14:07:09.534Z,48.65
2018-02-20T14:08:15.686Z,49.03
2018-02-20T14:09:21.902Z,49.78
2018-02-20T14:10:28.144Z,48.17
2018-02-20T14:11:34.284Z,50.15
2018-02-20T14:12:40.493Z,49.25
2018-02-20T14:13:46.617Z,47.80
2018-02-20T14:14:52.776Z,46.60